Time;durP1;ratioP1;P1;durP2;ratioP2;P2;SDS_P1;SDS_P2;PMS_P1;PMS_P2;Temp;Humidity;BMP_temperature;BMP_pressure;BME280_temperature;BME280_humidity;BME280_pressure;Samples;Min_cycle;Max_cycle;Signal;HPM_P1;HPM_P2
2022/07/03 00:02:28;;;;;;;11.4;13.2;;;;;;;15.1;100;99180;;;;
2022/07/03 00:13:28;;;;;;;11.8;15.3;;;;;;;15.3;100;99170;;;;
2022/07/03 00:24:28;;;;;;;11.8;15.3;;;;;;;15.6;100;99160;;;;
2022/07/03 00:34:28;;;;;;;11.8;15.3;;;;;;;15.7;100;99150;;;;
2022/07/03 00:45:28;;;;;;;10.4;13.3;;;;;;;15.7;100;99140;;;;
2022/07/03 00:55:28;;;;;;;10.4;13.3;;;;;;;15.9;100;99130;;;;
2022/07/03 01:06:28;;;;;;;10.4;13.3;;;;;;;15.8;100;99120;;;;
2022/07/03 01:16:28;;;;;;;10.6;13.1;;;;;;;16;100;99110;;;;
2022/07/03 01:27:28;;;;;;;10.6;13.1;;;;;;;16;100;99100;;;;
2022/07/03 01:38:28;;;;;;;10.6;13.1;;;;;;;16.1;100;99100;;;;
2022/07/03 01:48:28;;;;;;;12.4;15.9;;;;;;;16.3;100;99100;;;;
2022/07/03 01:59:28;;;;;;;12.4;15.9;;;;;;;16.2;100;99090;;;;
2022/07/03 02:10:28;;;;;;;12.4;15.9;;;;;;;16.1;100;99090;;;;
2022/07/03 02:20:28;;;;;;;8.7;14.2;;;;;;;16.1;100;99090;;;;
2022/07/03 02:30:28;;;;;;;8.7;14.2;;;;;;;16;100;99080;;;;
2022/07/03 02:41:28;;;;;;;8.7;14.2;;;;;;;16.2;100;99090;;;;
2022/07/03 02:52:28;;;;;;;7.9;11.4;;;;;;;16.1;100;99080;;;;
2022/07/03 03:02:28;;;;;;;7.9;11.4;;;;;;;16.1;100;99080;;;;
2022/07/03 03:13:28;;;;;;;7.3;9.9;;;;;;;16;100;99070;;;;
2022/07/03 03:23:28;;;;;;;7.3;9.9;;;;;;;16.2;100;99080;;;;
2022/07/03 03:34:28;;;;;;;7.3;9.9;;;;;;;16.4;100;99080;;;;
2022/07/03 03:44:28;;;;;;;6;8;;;;;;;16.5;100;99090;;;;
2022/07/03 03:55:28;;;;;;;6;8;;;;;;;16.5;100;99060;;;;
2022/07/03 04:05:28;;;;;;;6;8;;;;;;;16.7;100;99060;;;;
2022/07/03 04:16:28;;;;;;;6.3;9.6;;;;;;;17;100;99080;;;;
2022/07/03 04:27:29;;;;;;;6.3;9.6;;;;;;;17.3;100;99080;;;;
2022/07/03 04:37:28;;;;;;;6.3;9.6;;;;;;;17.7;100;99080;;;;
2022/07/03 04:47:28;;;;;;;6.6;9.1;;;;;;;17.8;100;99060;;;;
2022/07/03 04:58:28;;;;;;;6.6;9.1;;;;;;;18;100;99060;;;;
2022/07/03 05:09:28;;;;;;;6.6;9.1;;;;;;;18.2;100;99040;;;;
2022/07/03 05:19:28;;;;;;;6.6;11.2;;;;;;;18.1;100;99040;;;;
2022/07/03 05:29:28;;;;;;;6.6;11.2;;;;;;;18.6;100;99040;;;;
2022/07/03 05:40:28;;;;;;;6.6;11.2;;;;;;;19.1;100;99050;;;;
2022/07/03 05:51:28;;;;;;;6.5;8.5;;;;;;;19.1;100;99050;;;;
2022/07/03 06:02:28;;;;;;;6.5;8.5;;;;;;;19.2;100;99040;;;;
2022/07/03 06:12:28;;;;;;;6.5;8.5;;;;;;;19.8;100;99050;;;;
2022/07/03 06:33:30;;;;;;;5.8;11.1;;;;;;;20.4;100;99050;;;;
2022/07/03 06:43:30;;;;;;;5.1;7.4;;;;;;;19.9;100;99030;;;;
2022/07/03 06:54:30;;;;;;;5.1;7.4;;;;;;;20.7;100;99040;;;;
2022/07/03 07:05:30;;;;;;;5.1;7.4;;;;;;;20.9;100;99020;;;;
2022/07/03 07:16:32;;;;;;;4.1;6.9;;;;;;;21.6;100;99030;;;;
2022/07/03 07:27:30;;;;;;;4.1;6.9;;;;;;;21.5;100;99010;;;;
2022/07/03 07:38:30;;;;;;;4.1;6.9;;;;;;;21.7;100;99010;;;;
2022/07/03 07:48:28;;;;;;;3.6;5.8;;;;;;;21.9;100;99000;;;;
2022/07/03 07:58:30;;;;;;;3.6;5.8;;;;;;;22.1;100;98990;;;;
2022/07/03 08:09:30;;;;;;;3.6;5.8;;;;;;;22.1;100;99000;;;;
2022/07/03 08:19:32;;;;;;;3.7;6.4;;;;;;;22.7;100;99000;;;;
2022/07/03 08:30:32;;;;;;;3.7;6.4;;;;;;;21.9;100;98990;;;;
2022/07/03 08:41:32;;;;;;;3.7;6.4;;;;;;;22.1;100;98980;;;;
2022/07/03 08:51:28;;;;;;;4.3;8.3;;;;;;;22.4;100;98980;;;;
2022/07/03 09:01:30;;;;;;;4.3;8.3;;;;;;;22.3;100;98970;;;;
2022/07/03 09:12:31;;;;;;;4.3;8.3;;;;;;;23.2;100;98970;;;;
2022/07/03 09:23:30;;;;;;;4.1;6.9;;;;;;;23.5;100;98970;;;;
2022/07/03 09:33:28;;;;;;;4.1;6.9;;;;;;;23.6;100;98960;;;;
2022/07/03 09:44:30;;;;;;;3.7;6.4;;;;;;;23.9;100;98950;;;;
2022/07/03 09:54:28;;;;;;;3.7;6.4;;;;;;;23.3;100;98950;;;;
2022/07/03 10:04:30;;;;;;;3.7;6.4;;;;;;;24;100;98940;;;;
2022/07/03 10:14:28;;;;;;;3.8;7.3;;;;;;;24.1;100;98940;;;;
2022/07/03 10:24:32;;;;;;;3.8;7.3;;;;;;;24.5;100;98930;;;;
2022/07/03 10:35:32;;;;;;;3.8;7.3;;;;;;;24.6;100;98920;;;;
2022/07/03 10:46:32;;;;;;;3.5;6.6;;;;;;;25;100;98910;;;;
2022/07/03 10:56:28;;;;;;;3.5;6.6;;;;;;;24.9;100;98900;;;;
2022/07/03 11:06:30;;;;;;;3.5;6.6;;;;;;;25.4;100;98890;;;;
2022/07/03 11:17:30;;;;;;;3.8;6.9;;;;;;;25.6;100;98870;;;;
2022/07/03 11:28:30;;;;;;;3.8;6.9;;;;;;;25.8;100;98870;;;;
2022/07/03 11:38:29;;;;;;;3.8;6.9;;;;;;;25.9;100;98870;;;;
2022/07/03 11:48:30;;;;;;;4;5.8;;;;;;;25.7;100;98870;;;;
2022/07/03 11:58:28;;;;;;;4;5.8;;;;;;;26.1;100;98860;;;;
2022/07/03 12:09:30;;;;;;;4;5.8;;;;;;;26.6;100;98860;;;;
2022/07/03 12:19:28;;;;;;;3.8;6.4;;;;;;;26.9;100;98840;;;;
2022/07/03 12:29:30;;;;;;;3.8;6.4;;;;;;;26.9;100;98830;;;;
2022/07/03 12:40:30;;;;;;;3.8;6.4;;;;;;;26.8;100;98820;;;;
2022/07/03 12:50:30;;;;;;;4.8;7.6;;;;;;;27.7;100;98810;;;;
2022/07/03 13:00:30;;;;;;;4.8;7.6;;;;;;;28.1;100;98800;;;;
2022/07/03 13:11:29;;;;;;;4.8;7.6;;;;;;;28.1;95.1;98790;;;;
2022/07/03 13:22:28;;;;;;;3.9;6;;;;;;;28.6;100;98780;;;;
2022/07/03 13:32:28;;;;;;;3.9;6;;;;;;;28.7;91.1;98780;;;;
2022/07/03 13:42:28;;;;;;;3.9;6;;;;;;;28.9;87.5;98770;;;;
2022/07/03 13:53:28;;;;;;;4.4;6.7;;;;;;;29;89.1;98760;;;;
2022/07/03 14:03:28;;;;;;;4.4;6.7;;;;;;;28.6;89.9;98760;;;;
2022/07/03 14:14:28;;;;;;;4.3;6.2;;;;;;;29.2;89.3;98750;;;;
2022/07/03 14:25:29;;;;;;;4.3;6.2;;;;;;;29.8;82.9;98750;;;;
2022/07/03 14:36:28;;;;;;;4.3;6.2;;;;;;;29.9;85.2;98740;;;;
2022/07/03 14:46:28;;;;;;;4.1;6.4;;;;;;;30.1;77.8;98730;;;;
2022/07/03 14:56:28;;;;;;;4.1;6.4;;;;;;;30.6;72.3;98740;;;;
2022/07/03 15:07:28;;;;;;;4.1;6.4;;;;;;;32;72.8;98730;;;;
2022/07/03 15:18:28;;;;;;;4.2;6.1;;;;;;;35.1;58;98730;;;;
2022/07/03 15:28:28;;;;;;;4.2;6.1;;;;;;;35.8;53.3;98720;;;;
2022/07/03 15:39:28;;;;;;;4.2;6.1;;;;;;;35.8;53.7;98720;;;;
2022/07/03 15:50:29;;;;;;;4.2;6.6;;;;;;;36.3;50.5;98710;;;;
2022/07/03 16:00:29;;;;;;;4.2;6.6;;;;;;;37.8;48;98700;;;;
2022/07/03 16:11:28;;;;;;;4.2;6.6;;;;;;;39;44.8;98700;;;;
2022/07/03 16:21:28;;;;;;;3.3;5.4;;;;;;;39.5;44.7;98700;;;;
2022/07/03 16:32:28;;;;;;;3.3;5.4;;;;;;;40;44.2;98690;;;;
2022/07/03 16:43:29;;;;;;;3.3;5.4;;;;;;;38.7;45.9;98670;;;;
2022/07/03 16:54:28;;;;;;;3.7;6.3;;;;;;;40.2;43.3;98680;;;;
2022/07/03 17:05:28;;;;;;;3.7;6.3;;;;;;;39.4;43.4;98670;;;;
2022/07/03 17:15:28;;;;;;;3.9;7;;;;;;;36.1;47.9;98650;;;;
2022/07/03 17:26:28;;;;;;;3.9;7;;;;;;;32.3;58.8;98630;;;;
2022/07/03 17:37:28;;;;;;;3.9;7;;;;;;;33.4;58;98640;;;;
2022/07/03 17:47:28;;;;;;;4;7.7;;;;;;;34.3;54.3;98660;;;;
2022/07/03 17:58:28;;;;;;;4;7.7;;;;;;;33;55.6;98660;;;;
2022/07/03 18:08:28;;;;;;;4;7.7;;;;;;;32.5;57.8;98660;;;;
2022/07/03 18:19:29;;;;;;;3.5;6.4;;;;;;;29.2;65.2;98650;;;;
2022/07/03 18:30:28;;;;;;;3.5;6.4;;;;;;;27.4;73;98660;;;;
2022/07/03 18:41:28;;;;;;;3.5;6.4;;;;;;;25.7;80.8;98660;;;;
2022/07/03 18:51:28;;;;;;;3.6;5.6;;;;;;;25;83.5;98660;;;;
2022/07/03 19:02:28;;;;;;;3.6;5.6;;;;;;;24.2;88.5;98670;;;;
2022/07/03 19:13:29;;;;;;;3.6;5.6;;;;;;;23.5;88.4;98680;;;;
2022/07/03 19:23:28;;;;;;;4.6;7.8;;;;;;;23;94.4;98680;;;;
2022/07/03 19:33:29;;;;;;;4.6;7.8;;;;;;;22.6;96;98690;;;;
2022/07/03 19:43:29;;;;;;;4.6;7.8;;;;;;;22.4;99.3;98700;;;;
2022/07/03 19:54:28;;;;;;;4;7.5;;;;;;;22.3;100;98690;;;;
2022/07/03 20:04:29;;;;;;;4;7.5;;;;;;;22;100;98690;;;;
2022/07/03 20:15:29;;;;;;;4;7;;;;;;;21.5;100;98710;;;;
2022/07/03 20:26:28;;;;;;;4;7;;;;;;;21.2;100;98710;;;;
2022/07/03 20:36:28;;;;;;;4;7;;;;;;;20.9;100;98720;;;;
2022/07/03 20:57:30;;;;;;;4.9;7;;;;;;;20.5;100;98730;;;;
2022/07/03 21:18:29;;;;;;;4.6;7;;;;;;;20.3;100;98730;;;;
2022/07/03 21:28:29;;;;;;;4.6;7;;;;;;;20.1;100;98720;;;;
2022/07/03 21:38:29;;;;;;;4.6;7;;;;;;;19.9;100;98730;;;;
2022/07/03 21:49:29;;;;;;;3.4;6.6;;;;;;;19.8;100;98720;;;;
2022/07/03 22:00:29;;;;;;;3.4;6.6;;;;;;;19.6;100;98720;;;;
2022/07/03 22:11:29;;;;;;;3.4;6.6;;;;;;;19.3;100;98730;;;;
2022/07/03 22:21:29;;;;;;;3;5;;;;;;;19;100;98720;;;;
2022/07/03 22:32:29;;;;;;;3;5;;;;;;;18.8;100;98710;;;;
2022/07/03 22:42:29;;;;;;;3;5;;;;;;;18.6;100;98710;;;;
2022/07/03 23:03:29;;;;;;;4.2;6.8;;;;;;;18.2;100;98690;;;;
2022/07/03 23:13:29;;;;;;;4.2;6.8;;;;;;;18.2;100;98680;;;;
2022/07/03 23:24:29;;;;;;;3.7;6.4;;;;;;;18;100;98670;;;;
2022/07/03 23:35:29;;;;;;;3.7;6.4;;;;;;;17.9;100;98660;;;;
2022/07/03 23:45:29;;;;;;;3.5;6;;;;;;;17.8;100;98660;;;;
2022/07/03 23:56:29;;;;;;;3.5;6;;;;;;;17.7;100;98660;;;;
